Search for airport 
image banner adimage banner adimage banner ad
image banner ad

KCLR - Cliff Hatfield Memorial

Located in Calipatria, United States

ICAO - CLR, IATA - CLR

Data provided by Airmate  

General information

Coordinates: N33°7'53" W115°31'17"
Elevation is -182 feet MSL.
Magnetic variation is 13° East
View others Airports in California

Operational data

Special qualification required
Current time UTC:
Current local time:
Weather at : KIPL - Imperial County ( 33 km )
METAR: KIPL 150853Z AUTO 26003KT 10SM CLR 27/13 A2969 RMK AO2 SLP056 T02670128 58002
TAF: KIPL 150520Z 1506/1606 25006KT P6SM FEW180 FEW250 FM151200 16005KT P6SM FEW150 FEW250 FM151700 VRB04KT P6SM FEW120 FEW250 FM160200 23005KT P6SM FEW200 FEW250
View NOTAMs / SUP AIP / TFR affecting this airport [VIEW]
Communications frequencies: [VIEW]

Runways:

RWY identifierQFULength (ft)Width (ft)SurfaceLDA (ft)
0891°342350ASPH
26271°342350ASPH

Airport contact information

Address: Calipatria United States

Satellite view of KCLR